Red Boiling Springs, TN (37150)

4:27 PM CDT on July 24, 2014 (GMT -0500)
Pumpkintown (KTNREDBO3) Elev 902 ft | 36.58 °N, 85.91 °W | Change Station

Current weather conditions updated 7 minutes ago

Partly Cloudy
Partly Cloudy
81.7 °F
Feels Like 84 °F
N
0.0
Wind Variable Wind from NE
Gusts 8.0 mph

Tomorrow is forecast to be Warmer than today.

Today
High -- | Low -- °F
--% Chance of Precip.
Yesterday
High -- | Low -- °F
Precip. -- in
5:43 AM 7:56 PM
Waning Crescent, 4% visible
Pressure 30.01 in
Visibility 10.0 miles
Clouds Mostly Cloudy 6000 ft
Heat Index 84 °F
Dew Point 66 °F
Humidity 59%
Rainfall 0.00 in
Snow Depth Not available.
UV 3.8 out of 12
Pollen 3.40 out of 12
Ozone Good
PM2.5 Good
Flu Activity Not available.
METAR KGLW 242115Z AUTO 01009KT 350V060 10SM BKN060 28/13 A3001 RMK AO2 T02800128

More Conditions Fewer Conditions

Pressure 30.01 in
Visibility 10.0 miles
Clouds Mostly Cloudy 6000 ft
Heat Index 84 °F
Dew Point 66 °F
Humidity 59%
Rainfall 0.00 in
Snow Depth Not available.
UV 3.8 out of 12
Pollen 3.40 out of 12
Ozone Good
PM2.5 Good
Flu Activity Not available.
METAR KGLW 242115Z AUTO 01009KT 350V060 10SM BKN060 28/13 A3001 RMK AO2 T02800128

More Conditions Fewer Conditions

10-Day Weather Forecast

Almanac

Astronomy

Jul. 24, 2014 Rise Set
Actual Time 5:43 AM CDT 7:56 PM CDT
Civil Twilight 5:14 AM CDT 8:25 PM CDT
Nautical Twilight 4:38 AM CDT 9:00 PM CDT
Astronomical Twilight 3:59 AM CDT 9:39 PM CDT
Moon 3:50 AM CDT 6:11 PM CDT
Length of Visible Light 15h 10m
Length of Day
14h 12m
Tomorrow will be 1m 31s shorter.
Waning Crescent, 4% of the Moon is Illuminated
Today
Waning Crescent
Jul 26
New
Aug 3
First Quarter
Aug 10
Full
Aug 17
Last Quarter

Today's Extremes

State Highs State Lows

Community

WunderPhotos

Upload Photos

1,737,133 photos uploaded!

WunderBlogs® & News

Nearby

Air Quality

  Air Quality AQ Index Pollutant
Yesterday Moderate
PM2.5
Yesterday Good
OZONE
Current Good
PM2.5
Current Good
OZONE
Thursday Good
PM2.5
Thursday Good
OZONE
Friday Moderate
OZONE
Friday Moderate
PM2.5
Saturday Moderate
OZONE
Saturday Moderate
PM2.5

Snow Depth

Station Depth Elevation
No new snow has been reported.

Earthquake Activity

City Distance Mag. Time & Date
No recent earthquake activity has been reported nearby.
Minimum magnitude displayed is 2.5.

Coastal Water Temperatures

Place Temperature
No Stations Reporting

Nearby Weather Stations

Station Location Temp. Heat Index Dew Point Humidity Wind Precip. Elev Updated Type
Pumpkintown, Red Boiling Springs, TN 81.7 °F 84 °F 66 °F 59% NE  at  0.0 mph 0.00 in / hr 902 ft 5:20 PM EDT Normal
On the Square, Celina, TN 80.1 °F 83 °F 69 °F 68% NNE  at  7.0 mph 0.00 in / hr 574 ft 4:27 PM CDT Rapid Fire
Center Point Ky, Tompkinsville, KY 84.2 °F 88 °F 70 °F 62% North  at  3.7 mph - / hr 740 ft 4:17 PM CDT Normal

Show More Stations Show Fewer Stations